sensor_id;sensor_type;location;lat;lon;timestamp;P1;durP1;ratioP1;P2;durP2;ratioP2
41343;SDS011;27089;50.022;7.604;2022-10-17T00:02:23;5.07;;;3.97;;
41343;SDS011;27089;50.022;7.604;2022-10-17T00:04:50;12.33;;;4.23;;
41343;SDS011;27089;50.022;7.604;2022-10-17T00:07:17;5.63;;;3.50;;
41343;SDS011;27089;50.022;7.604;2022-10-17T00:09:44;6.90;;;4.00;;
41343;SDS011;27089;50.022;7.604;2022-10-17T00:12:12;8.57;;;3.87;;
41343;SDS011;27089;50.022;7.604;2022-10-17T00:14:39;10.30;;;4.20;;
41343;SDS011;27089;50.022;7.604;2022-10-17T00:17:06;5.80;;;3.70;;
41343;SDS011;27089;50.022;7.604;2022-10-17T00:19:33;7.03;;;3.70;;
41343;SDS011;27089;50.022;7.604;2022-10-17T00:22:00;7.87;;;3.70;;
41343;SDS011;27089;50.022;7.604;2022-10-17T00:24:28;8.17;;;4.17;;
41343;SDS011;27089;50.022;7.604;2022-10-17T00:26:55;7.97;;;3.90;;
41343;SDS011;27089;50.022;7.604;2022-10-17T00:29:24;7.77;;;4.13;;
41343;SDS011;27089;50.022;7.604;2022-10-17T00:31:52;5.63;;;3.87;;
41343;SDS011;27089;50.022;7.604;2022-10-17T00:34:20;9.13;;;3.90;;
41343;SDS011;27089;50.022;7.604;2022-10-17T00:36:47;5.57;;;3.97;;
41343;SDS011;27089;50.022;7.604;2022-10-17T00:39:13;5.37;;;4.17;;
41343;SDS011;27089;50.022;7.604;2022-10-17T00:41:41;5.07;;;3.90;;
41343;SDS011;27089;50.022;7.604;2022-10-17T00:47:12;5.03;;;3.90;;
41343;SDS011;27089;50.022;7.604;2022-10-17T00:49:42;5.43;;;3.67;;
41343;SDS011;27089;50.022;7.604;2022-10-17T00:52:10;5.77;;;3.57;;
41343;SDS011;27089;50.022;7.604;2022-10-17T00:54:43;4.13;;;3.33;;
41343;SDS011;27089;50.022;7.604;2022-10-17T00:57:13;6.87;;;3.90;;
41343;SDS011;27089;50.022;7.604;2022-10-17T00:59:42;5.50;;;3.97;;
41343;SDS011;27089;50.022;7.604;2022-10-17T01:02:13;5.13;;;3.80;;
41343;SDS011;27089;50.022;7.604;2022-10-17T01:04:41;5.13;;;3.70;;
41343;SDS011;27089;50.022;7.604;2022-10-17T01:07:10;6.37;;;3.97;;
41343;SDS011;27089;50.022;7.604;2022-10-17T01:09:37;6.73;;;3.87;;
41343;SDS011;27089;50.022;7.604;2022-10-17T01:12:06;3.80;;;3.40;;
41343;SDS011;27089;50.022;7.604;2022-10-17T01:14:41;6.33;;;3.57;;
41343;SDS011;27089;50.022;7.604;2022-10-17T01:17:16;6.80;;;3.53;;
41343;SDS011;27089;50.022;7.604;2022-10-17T01:19:56;4.93;;;3.50;;
41343;SDS011;27089;50.022;7.604;2022-10-17T01:22:38;7.67;;;3.70;;
41343;SDS011;27089;50.022;7.604;2022-10-17T01:25:15;5.40;;;3.33;;
41343;SDS011;27089;50.022;7.604;2022-10-17T01:27:55;6.57;;;3.27;;
41343;SDS011;27089;50.022;7.604;2022-10-17T01:33:25;4.10;;;3.70;;
41343;SDS011;27089;50.022;7.604;2022-10-17T01:36:04;6.47;;;3.43;;
41343;SDS011;27089;50.022;7.604;2022-10-17T01:38:37;4.90;;;3.80;;
41343;SDS011;27089;50.022;7.604;2022-10-17T01:41:13;6.07;;;4.00;;
41343;SDS011;27089;50.022;7.604;2022-10-17T01:43:46;6.47;;;3.53;;
41343;SDS011;27089;50.022;7.604;2022-10-17T01:46:21;6.47;;;3.40;;
41343;SDS011;27089;50.022;7.604;2022-10-17T01:48:52;7.03;;;3.80;;
41343;SDS011;27089;50.022;7.604;2022-10-17T01:51:21;6.10;;;3.73;;
41343;SDS011;27089;50.022;7.604;2022-10-17T01:53:53;4.60;;;3.20;;
41343;SDS011;27089;50.022;7.604;2022-10-17T01:56:25;5.90;;;3.43;;
41343;SDS011;27089;50.022;7.604;2022-10-17T01:58:56;7.10;;;3.40;;
41343;SDS011;27089;50.022;7.604;2022-10-17T02:01:29;4.67;;;3.27;;
41343;SDS011;27089;50.022;7.604;2022-10-17T02:03:57;7.40;;;3.60;;
41343;SDS011;27089;50.022;7.604;2022-10-17T02:06:26;6.60;;;3.53;;
41343;SDS011;27089;50.022;7.604;2022-10-17T02:08:53;4.37;;;3.20;;
41343;SDS011;27089;50.022;7.604;2022-10-17T02:11:20;4.70;;;3.67;;
41343;SDS011;27089;50.022;7.604;2022-10-17T02:14:00;5.27;;;3.90;;
41343;SDS011;27089;50.022;7.604;2022-10-17T02:16:42;4.83;;;3.67;;
41343;SDS011;27089;50.022;7.604;2022-10-17T02:22:15;5.40;;;4.00;;
41343;SDS011;27089;50.022;7.604;2022-10-17T02:24:50;7.17;;;3.60;;
41343;SDS011;27089;50.022;7.604;2022-10-17T02:27:28;6.73;;;3.70;;
41343;SDS011;27089;50.022;7.604;2022-10-17T02:30:07;6.40;;;3.87;;
41343;SDS011;27089;50.022;7.604;2022-10-17T02:32:40;4.47;;;3.50;;
41343;SDS011;27089;50.022;7.604;2022-10-17T02:35:12;6.30;;;3.30;;
41343;SDS011;27089;50.022;7.604;2022-10-17T02:37:41;5.40;;;3.10;;
41343;SDS011;27089;50.022;7.604;2022-10-17T02:40:12;4.13;;;3.20;;
41343;SDS011;27089;50.022;7.604;2022-10-17T02:42:41;5.73;;;3.50;;
41343;SDS011;27089;50.022;7.604;2022-10-17T02:45:10;5.03;;;3.60;;
41343;SDS011;27089;50.022;7.604;2022-10-17T02:47:45;4.27;;;3.43;;
41343;SDS011;27089;50.022;7.604;2022-10-17T02:50:19;6.10;;;3.93;;
41343;SDS011;27089;50.022;7.604;2022-10-17T02:53:00;6.03;;;3.43;;
41343;SDS011;27089;50.022;7.604;2022-10-17T02:55:35;7.87;;;4.07;;
41343;SDS011;27089;50.022;7.604;2022-10-17T02:58:06;5.27;;;3.30;;
41343;SDS011;27089;50.022;7.604;2022-10-17T03:00:37;7.23;;;3.47;;
41343;SDS011;27089;50.022;7.604;2022-10-17T03:03:18;3.73;;;3.27;;
41343;SDS011;27089;50.022;7.604;2022-10-17T03:05:47;8.57;;;3.40;;
41343;SDS011;27089;50.022;7.604;2022-10-17T03:08:14;5.27;;;3.40;;
41343;SDS011;27089;50.022;7.604;2022-10-17T03:10:41;5.03;;;3.63;;
41343;SDS011;27089;50.022;7.604;2022-10-17T03:13:08;4.00;;;3.30;;
41343;SDS011;27089;50.022;7.604;2022-10-17T03:15:35;7.70;;;3.70;;
41343;SDS011;27089;50.022;7.604;2022-10-17T03:18:02;8.53;;;3.50;;
41343;SDS011;27089;50.022;7.604;2022-10-17T03:20:30;6.30;;;3.60;;
41343;SDS011;27089;50.022;7.604;2022-10-17T03:22:58;4.57;;;3.50;;
41343;SDS011;27089;50.022;7.604;2022-10-17T03:25:25;6.13;;;3.73;;
41343;SDS011;27089;50.022;7.604;2022-10-17T03:27:52;9.90;;;3.53;;
41343;SDS011;27089;50.022;7.604;2022-10-17T03:30:19;6.93;;;3.60;;
41343;SDS011;27089;50.022;7.604;2022-10-17T03:32:46;6.70;;;3.10;;
41343;SDS011;27089;50.022;7.604;2022-10-17T03:35:13;4.07;;;3.20;;
41343;SDS011;27089;50.022;7.604;2022-10-17T03:37:41;5.33;;;3.30;;
41343;SDS011;27089;50.022;7.604;2022-10-17T03:40:09;6.47;;;3.50;;
41343;SDS011;27089;50.022;7.604;2022-10-17T03:42:36;4.60;;;3.17;;
41343;SDS011;27089;50.022;7.604;2022-10-17T03:45:03;4.33;;;3.53;;
41343;SDS011;27089;50.022;7.604;2022-10-17T03:47:31;5.73;;;3.57;;
41343;SDS011;27089;50.022;7.604;2022-10-17T03:49:57;7.20;;;3.70;;
41343;SDS011;27089;50.022;7.604;2022-10-17T03:52:24;7.23;;;4.20;;
41343;SDS011;27089;50.022;7.604;2022-10-17T03:54:53;7.47;;;3.60;;
41343;SDS011;27089;50.022;7.604;2022-10-17T03:57:20;4.50;;;3.60;;
41343;SDS011;27089;50.022;7.604;2022-10-17T03:59:48;5.50;;;3.47;;
41343;SDS011;27089;50.022;7.604;2022-10-17T04:02:15;6.37;;;3.40;;
41343;SDS011;27089;50.022;7.604;2022-10-17T04:04:42;5.53;;;3.50;;
41343;SDS011;27089;50.022;7.604;2022-10-17T04:07:09;7.50;;;3.67;;
41343;SDS011;27089;50.022;7.604;2022-10-17T04:09:36;3.53;;;3.23;;
41343;SDS011;27089;50.022;7.604;2022-10-17T04:12:04;3.87;;;3.50;;
41343;SDS011;27089;50.022;7.604;2022-10-17T04:14:32;7.30;;;3.70;;
41343;SDS011;27089;50.022;7.604;2022-10-17T04:16:59;6.70;;;3.57;;
41343;SDS011;27089;50.022;7.604;2022-10-17T04:19:26;6.67;;;3.30;;
41343;SDS011;27089;50.022;7.604;2022-10-17T04:21:53;4.90;;;3.87;;
41343;SDS011;27089;50.022;7.604;2022-10-17T04:24:19;8.23;;;3.80;;
41343;SDS011;27089;50.022;7.604;2022-10-17T04:26:48;6.10;;;3.53;;
41343;SDS011;27089;50.022;7.604;2022-10-17T04:29:16;6.93;;;3.93;;
41343;SDS011;27089;50.022;7.604;2022-10-17T04:31:43;6.83;;;3.70;;
41343;SDS011;27089;50.022;7.604;2022-10-17T04:34:10;8.23;;;3.80;;
41343;SDS011;27089;50.022;7.604;2022-10-17T04:36:39;7.33;;;3.70;;
41343;SDS011;27089;50.022;7.604;2022-10-17T04:39:06;6.60;;;4.23;;
41343;SDS011;27089;50.022;7.604;2022-10-17T04:41:32;5.07;;;3.77;;
41343;SDS011;27089;50.022;7.604;2022-10-17T04:43:59;6.57;;;3.90;;
41343;SDS011;27089;50.022;7.604;2022-10-17T04:46:28;7.10;;;4.00;;
41343;SDS011;27089;50.022;7.604;2022-10-17T04:48:55;7.93;;;3.80;;
41343;SDS011;27089;50.022;7.604;2022-10-17T04:51:22;5.17;;;3.97;;
41343;SDS011;27089;50.022;7.604;2022-10-17T04:53:49;6.50;;;3.90;;
41343;SDS011;27089;50.022;7.604;2022-10-17T04:56:17;4.93;;;3.70;;
41343;SDS011;27089;50.022;7.604;2022-10-17T04:58:45;5.53;;;3.70;;
41343;SDS011;27089;50.022;7.604;2022-10-17T05:01:13;5.83;;;3.97;;
41343;SDS011;27089;50.022;7.604;2022-10-17T05:03:43;10.47;;;4.00;;
41343;SDS011;27089;50.022;7.604;2022-10-17T05:06:11;4.37;;;3.47;;
41343;SDS011;27089;50.022;7.604;2022-10-17T05:08:39;6.07;;;4.03;;
41343;SDS011;27089;50.022;7.604;2022-10-17T05:11:14;8.00;;;4.03;;
41343;SDS011;27089;50.022;7.604;2022-10-17T05:13:42;4.13;;;3.53;;
41343;SDS011;27089;50.022;7.604;2022-10-17T05:16:09;5.77;;;4.10;;
41343;SDS011;27089;50.022;7.604;2022-10-17T05:18:36;6.27;;;4.07;;
41343;SDS011;27089;50.022;7.604;2022-10-17T05:21:05;6.97;;;3.70;;
41343;SDS011;27089;50.022;7.604;2022-10-17T05:23:32;10.30;;;4.20;;
41343;SDS011;27089;50.022;7.604;2022-10-17T05:25:59;5.43;;;3.93;;
41343;SDS011;27089;50.022;7.604;2022-10-17T05:28:26;4.47;;;3.83;;
41343;SDS011;27089;50.022;7.604;2022-10-17T05:30:53;5.53;;;3.60;;
41343;SDS011;27089;50.022;7.604;2022-10-17T05:33:21;7.83;;;3.67;;
41343;SDS011;27089;50.022;7.604;2022-10-17T05:35:48;6.80;;;3.83;;
41343;SDS011;27089;50.022;7.604;2022-10-17T05:38:17;5.00;;;3.77;;
41343;SDS011;27089;50.022;7.604;2022-10-17T05:40:44;4.30;;;3.90;;
41343;SDS011;27089;50.022;7.604;2022-10-17T05:43:11;4.43;;;3.70;;
41343;SDS011;27089;50.022;7.604;2022-10-17T05:45:38;7.57;;;4.20;;
41343;SDS011;27089;50.022;7.604;2022-10-17T05:48:05;5.77;;;4.00;;
41343;SDS011;27089;50.022;7.604;2022-10-17T05:50:33;7.40;;;3.63;;
41343;SDS011;27089;50.022;7.604;2022-10-17T05:53:00;5.80;;;3.87;;
41343;SDS011;27089;50.022;7.604;2022-10-17T05:55:29;6.30;;;4.00;;
41343;SDS011;27089;50.022;7.604;2022-10-17T05:57:56;5.60;;;3.90;;
41343;SDS011;27089;50.022;7.604;2022-10-17T06:00:24;4.07;;;3.67;;
41343;SDS011;27089;50.022;7.604;2022-10-17T06:02:51;5.23;;;3.80;;
41343;SDS011;27089;50.022;7.604;2022-10-17T06:05:18;6.23;;;3.53;;
41343;SDS011;27089;50.022;7.604;2022-10-17T06:07:46;6.70;;;3.60;;
41343;SDS011;27089;50.022;7.604;2022-10-17T06:10:14;6.90;;;3.70;;
41343;SDS011;27089;50.022;7.604;2022-10-17T06:12:44;4.33;;;3.87;;
41343;SDS011;27089;50.022;7.604;2022-10-17T06:15:11;7.20;;;3.83;;
41343;SDS011;27089;50.022;7.604;2022-10-17T06:17:38;6.57;;;3.90;;
41343;SDS011;27089;50.022;7.604;2022-10-17T06:20:06;5.27;;;3.80;;
41343;SDS011;27089;50.022;7.604;2022-10-17T06:22:33;4.57;;;3.37;;
41343;SDS011;27089;50.022;7.604;2022-10-17T06:25:00;5.30;;;3.30;;
41343;SDS011;27089;50.022;7.604;2022-10-17T06:27:27;4.80;;;3.50;;
41343;SDS011;27089;50.022;7.604;2022-10-17T06:29:56;7.90;;;3.90;;
41343;SDS011;27089;50.022;7.604;2022-10-17T06:32:23;5.17;;;3.40;;
41343;SDS011;27089;50.022;7.604;2022-10-17T06:34:50;4.10;;;3.50;;
41343;SDS011;27089;50.022;7.604;2022-10-17T06:37:17;6.37;;;3.83;;
41343;SDS011;27089;50.022;7.604;2022-10-17T06:39:44;7.30;;;3.37;;
41343;SDS011;27089;50.022;7.604;2022-10-17T06:42:11;6.30;;;3.13;;
41343;SDS011;27089;50.022;7.604;2022-10-17T06:44:38;6.47;;;3.37;;
41343;SDS011;27089;50.022;7.604;2022-10-17T06:47:07;3.97;;;3.20;;
41343;SDS011;27089;50.022;7.604;2022-10-17T06:49:35;4.53;;;3.07;;
41343;SDS011;27089;50.022;7.604;2022-10-17T06:52:02;5.67;;;3.60;;
41343;SDS011;27089;50.022;7.604;2022-10-17T06:54:29;5.00;;;3.40;;
41343;SDS011;27089;50.022;7.604;2022-10-17T06:57:02;4.80;;;3.00;;
41343;SDS011;27089;50.022;7.604;2022-10-17T06:59:29;4.53;;;3.07;;
41343;SDS011;27089;50.022;7.604;2022-10-17T07:01:56;5.33;;;3.00;;
41343;SDS011;27089;50.022;7.604;2022-10-17T07:04:26;3.57;;;3.00;;
41343;SDS011;27089;50.022;7.604;2022-10-17T07:06:53;6.97;;;3.23;;
41343;SDS011;27089;50.022;7.604;2022-10-17T07:09:20;6.23;;;3.10;;
41343;SDS011;27089;50.022;7.604;2022-10-17T07:11:48;4.30;;;2.97;;
41343;SDS011;27089;50.022;7.604;2022-10-17T07:14:15;3.80;;;2.70;;
41343;SDS011;27089;50.022;7.604;2022-10-17T07:16:42;6.07;;;2.60;;
41343;SDS011;27089;50.022;7.604;2022-10-17T07:19:09;5.73;;;3.13;;
41343;SDS011;27089;50.022;7.604;2022-10-17T07:21:39;4.20;;;2.70;;
41343;SDS011;27089;50.022;7.604;2022-10-17T07:24:06;5.37;;;2.73;;
41343;SDS011;27089;50.022;7.604;2022-10-17T07:26:35;4.10;;;2.67;;
41343;SDS011;27089;50.022;7.604;2022-10-17T07:29:04;6.22;;;2.58;;
41343;SDS011;27089;50.022;7.604;2022-10-17T07:31:33;3.17;;;2.70;;
41343;SDS011;27089;50.022;7.604;2022-10-17T07:34:05;5.65;;;3.00;;
41343;SDS011;27089;50.022;7.604;2022-10-17T07:36:32;6.65;;;2.80;;
41343;SDS011;27089;50.022;7.604;2022-10-17T07:39:02;4.07;;;2.60;;
41343;SDS011;27089;50.022;7.604;2022-10-17T07:41:30;5.60;;;3.20;;
41343;SDS011;27089;50.022;7.604;2022-10-17T07:43:57;5.35;;;2.90;;
41343;SDS011;27089;50.022;7.604;2022-10-17T07:46:25;6.33;;;2.80;;
41343;SDS011;27089;50.022;7.604;2022-10-17T07:48:53;4.40;;;2.70;;
41343;SDS011;27089;50.022;7.604;2022-10-17T07:51:20;4.63;;;2.70;;
41343;SDS011;27089;50.022;7.604;2022-10-17T07:53:47;8.02;;;2.97;;
41343;SDS011;27089;50.022;7.604;2022-10-17T07:56:18;5.60;;;2.43;;
41343;SDS011;27089;50.022;7.604;2022-10-17T07:58:48;5.55;;;2.90;;
41343;SDS011;27089;50.022;7.604;2022-10-17T08:01:17;5.72;;;2.78;;
41343;SDS011;27089;50.022;7.604;2022-10-17T08:03:44;4.22;;;2.70;;
41343;SDS011;27089;50.022;7.604;2022-10-17T08:06:14;4.55;;;3.05;;
41343;SDS011;27089;50.022;7.604;2022-10-17T08:08:41;3.60;;;2.60;;
41343;SDS011;27089;50.022;7.604;2022-10-17T08:11:09;7.43;;;2.90;;
41343;SDS011;27089;50.022;7.604;2022-10-17T08:13:40;5.57;;;2.80;;
41343;SDS011;27089;50.022;7.604;2022-10-17T08:16:08;6.22;;;2.63;;
41343;SDS011;27089;50.022;7.604;2022-10-17T08:18:37;5.75;;;2.83;;
41343;SDS011;27089;50.022;7.604;2022-10-17T08:21:05;5.15;;;2.70;;
41343;SDS011;27089;50.022;7.604;2022-10-17T08:23:35;7.38;;;2.60;;
41343;SDS011;27089;50.022;7.604;2022-10-17T08:26:03;4.82;;;2.45;;
41343;SDS011;27089;50.022;7.604;2022-10-17T08:28:33;6.18;;;2.78;;
41343;SDS011;27089;50.022;7.604;2022-10-17T08:31:02;3.08;;;2.40;;
41343;SDS011;27089;50.022;7.604;2022-10-17T08:33:30;4.45;;;2.50;;
41343;SDS011;27089;50.022;7.604;2022-10-17T08:35:58;3.63;;;2.25;;
41343;SDS011;27089;50.022;7.604;2022-10-17T08:38:27;3.97;;;2.30;;
41343;SDS011;27089;50.022;7.604;2022-10-17T08:40:54;4.57;;;2.20;;
41343;SDS011;27089;50.022;7.604;2022-10-17T08:43:27;3.40;;;2.00;;
41343;SDS011;27089;50.022;7.604;2022-10-17T08:46:04;5.13;;;2.08;;
41343;SDS011;27089;50.022;7.604;2022-10-17T08:48:34;4.57;;;2.10;;
41343;SDS011;27089;50.022;7.604;2022-10-17T08:51:05;3.40;;;2.00;;
41343;SDS011;27089;50.022;7.604;2022-10-17T08:53:39;5.18;;;2.05;;
41343;SDS011;27089;50.022;7.604;2022-10-17T08:56:13;5.18;;;1.90;;
41343;SDS011;27089;50.022;7.604;2022-10-17T08:58:44;4.35;;;2.20;;
41343;SDS011;27089;50.022;7.604;2022-10-17T09:01:19;3.63;;;2.20;;
41343;SDS011;27089;50.022;7.604;2022-10-17T09:04:05;5.57;;;2.10;;
41343;SDS011;27089;50.022;7.604;2022-10-17T09:06:47;4.10;;;2.08;;
41343;SDS011;27089;50.022;7.604;2022-10-17T09:09:24;2.38;;;1.90;;
41343;SDS011;27089;50.022;7.604;2022-10-17T09:12:04;4.55;;;2.05;;
41343;SDS011;27089;50.022;7.604;2022-10-17T09:17:37;2.17;;;1.65;;
41343;SDS011;27089;50.022;7.604;2022-10-17T09:20:15;5.45;;;2.20;;
41343;SDS011;27089;50.022;7.604;2022-10-17T09:22:46;4.72;;;2.08;;
41343;SDS011;27089;50.022;7.604;2022-10-17T09:25:20;4.70;;;2.42;;
41343;SDS011;27089;50.022;7.604;2022-10-17T09:27:47;4.55;;;2.47;;
41343;SDS011;27089;50.022;7.604;2022-10-17T09:30:22;4.90;;;2.30;;
41343;SDS011;27089;50.022;7.604;2022-10-17T09:32:57;4.78;;;2.30;;
41343;SDS011;27089;50.022;7.604;2022-10-17T09:35:24;4.72;;;1.90;;
41343;SDS011;27089;50.022;7.604;2022-10-17T09:37:54;2.35;;;1.80;;
41343;SDS011;27089;50.022;7.604;2022-10-17T09:40:23;4.93;;;2.08;;
41343;SDS011;27089;50.022;7.604;2022-10-17T09:42:52;4.15;;;2.22;;
41343;SDS011;27089;50.022;7.604;2022-10-17T09:45:20;4.47;;;2.30;;
41343;SDS011;27089;50.022;7.604;2022-10-17T09:47:54;6.15;;;2.40;;
41343;SDS011;27089;50.022;7.604;2022-10-17T09:50:28;5.43;;;1.92;;
41343;SDS011;27089;50.022;7.604;2022-10-17T09:55:36;4.68;;;2.47;;
41343;SDS011;27089;50.022;7.604;2022-10-17T09:58:14;3.60;;;2.13;;
41343;SDS011;27089;50.022;7.604;2022-10-17T10:00:42;6.22;;;2.20;;
41343;SDS011;27089;50.022;7.604;2022-10-17T10:03:14;3.38;;;1.95;;
41343;SDS011;27089;50.022;7.604;2022-10-17T10:05:58;3.60;;;2.17;;
41343;SDS011;27089;50.022;7.604;2022-10-17T10:08:28;3.63;;;2.10;;
41343;SDS011;27089;50.022;7.604;2022-10-17T10:10:58;3.75;;;2.00;;
41343;SDS011;27089;50.022;7.604;2022-10-17T10:13:28;4.47;;;2.20;;
41343;SDS011;27089;50.022;7.604;2022-10-17T10:16:11;4.20;;;2.17;;
41343;SDS011;27089;50.022;7.604;2022-10-17T10:18:41;5.97;;;2.00;;
41343;SDS011;27089;50.022;7.604;2022-10-17T10:21:10;4.72;;;2.25;;
41343;SDS011;27089;50.022;7.604;2022-10-17T10:23:39;3.58;;;2.17;;
41343;SDS011;27089;50.022;7.604;2022-10-17T10:28:58;5.18;;;2.10;;
41343;SDS011;27089;50.022;7.604;2022-10-17T10:31:28;4.82;;;2.53;;
41343;SDS011;27089;50.022;7.604;2022-10-17T10:34:00;4.60;;;2.28;;
41343;SDS011;27089;50.022;7.604;2022-10-17T10:36:45;7.10;;;2.22;;
41343;SDS011;27089;50.022;7.604;2022-10-17T10:39:34;8.55;;;2.80;;
41343;SDS011;27089;50.022;7.604;2022-10-17T10:42:07;4.80;;;2.45;;
41343;SDS011;27089;50.022;7.604;2022-10-17T10:44:45;4.63;;;2.50;;
41343;SDS011;27089;50.022;7.604;2022-10-17T10:47:17;5.80;;;2.50;;
41343;SDS011;27089;50.022;7.604;2022-10-17T10:49:50;6.22;;;2.30;;
41343;SDS011;27089;50.022;7.604;2022-10-17T10:52:32;3.58;;;2.10;;
41343;SDS011;27089;50.022;7.604;2022-10-17T10:55:19;6.60;;;2.38;;
41343;SDS011;27089;50.022;7.604;2022-10-17T10:57:51;3.70;;;2.10;;
41343;SDS011;27089;50.022;7.604;2022-10-17T11:00:23;6.78;;;2.20;;
41343;SDS011;27089;50.022;7.604;2022-10-17T11:02:55;4.43;;;2.20;;
41343;SDS011;27089;50.022;7.604;2022-10-17T11:05:33;5.95;;;2.63;;
41343;SDS011;27089;50.022;7.604;2022-10-17T11:08:06;5.22;;;2.72;;
41343;SDS011;27089;50.022;7.604;2022-10-17T11:10:42;4.88;;;2.55;;
41343;SDS011;27089;50.022;7.604;2022-10-17T11:13:25;4.78;;;2.50;;
41343;SDS011;27089;50.022;7.604;2022-10-17T11:15:58;5.72;;;2.65;;
41343;SDS011;27089;50.022;7.604;2022-10-17T11:18:34;5.05;;;2.47;;
41343;SDS011;27089;50.022;7.604;2022-10-17T11:21:12;5.72;;;2.47;;
41343;SDS011;27089;50.022;7.604;2022-10-17T11:23:43;4.72;;;2.10;;
41343;SDS011;27089;50.022;7.604;2022-10-17T11:26:15;3.80;;;2.15;;
41343;SDS011;27089;50.022;7.604;2022-10-17T11:28:51;4.32;;;2.38;;
41343;SDS011;27089;50.022;7.604;2022-10-17T11:31:19;7.25;;;2.47;;
41343;SDS011;27089;50.022;7.604;2022-10-17T11:33:49;3.00;;;2.17;;
41343;SDS011;27089;50.022;7.604;2022-10-17T11:36:23;8.68;;;2.60;;
41343;SDS011;27089;50.022;7.604;2022-10-17T11:38:54;5.15;;;2.63;;
41343;SDS011;27089;50.022;7.604;2022-10-17T11:41:26;6.20;;;2.08;;
41343;SDS011;27089;50.022;7.604;2022-10-17T11:43:57;5.57;;;2.53;;
41343;SDS011;27089;50.022;7.604;2022-10-17T11:46:30;6.97;;;2.40;;
41343;SDS011;27089;50.022;7.604;2022-10-17T11:49:04;8.95;;;3.13;;
41343;SDS011;27089;50.022;7.604;2022-10-17T11:51:42;5.60;;;2.60;;
41343;SDS011;27089;50.022;7.604;2022-10-17T11:54:12;3.85;;;2.42;;
41343;SDS011;27089;50.022;7.604;2022-10-17T11:56:44;6.30;;;2.90;;
41343;SDS011;27089;50.022;7.604;2022-10-17T12:02:14;3.65;;;2.40;;
41343;SDS011;27089;50.022;7.604;2022-10-17T12:04:52;7.13;;;2.78;;
41343;SDS011;27089;50.022;7.604;2022-10-17T12:07:29;4.60;;;2.63;;
41343;SDS011;27089;50.022;7.604;2022-10-17T12:10:05;6.50;;;2.53;;
41343;SDS011;27089;50.022;7.604;2022-10-17T12:12:43;6.75;;;2.90;;
41343;SDS011;27089;50.022;7.604;2022-10-17T12:17:56;4.40;;;2.60;;
41343;SDS011;27089;50.022;7.604;2022-10-17T12:20:31;3.63;;;2.25;;
41343;SDS011;27089;50.022;7.604;2022-10-17T12:23:03;5.95;;;2.80;;
41343;SDS011;27089;50.022;7.604;2022-10-17T12:25:47;3.42;;;2.40;;
41343;SDS011;27089;50.022;7.604;2022-10-17T12:28:24;5.55;;;2.50;;
41343;SDS011;27089;50.022;7.604;2022-10-17T12:30:56;4.72;;;2.42;;
41343;SDS011;27089;50.022;7.604;2022-10-17T12:33:28;6.57;;;2.78;;
41343;SDS011;27089;50.022;7.604;2022-10-17T12:42:28;9.95;;;2.28;;
41343;SDS011;27089;50.022;7.604;2022-10-17T12:51:21;6.18;;;2.33;;
41343;SDS011;27089;50.022;7.604;2022-10-17T12:53:51;5.78;;;2.10;;
41343;SDS011;27089;50.022;7.604;2022-10-17T12:56:30;9.15;;;2.40;;
41343;SDS011;27089;50.022;7.604;2022-10-17T12:59:00;6.47;;;2.45;;
41343;SDS011;27089;50.022;7.604;2022-10-17T13:01:34;7.13;;;2.35;;
41343;SDS011;27089;50.022;7.604;2022-10-17T13:04:03;4.45;;;2.30;;
41343;SDS011;27089;50.022;7.604;2022-10-17T13:06:31;5.93;;;2.10;;
41343;SDS011;27089;50.022;7.604;2022-10-17T13:09:05;6.50;;;2.58;;
41343;SDS011;27089;50.022;7.604;2022-10-17T13:11:36;6.75;;;2.47;;
41343;SDS011;27089;50.022;7.604;2022-10-17T13:14:08;4.97;;;2.20;;
41343;SDS011;27089;50.022;7.604;2022-10-17T13:16:39;6.22;;;2.40;;
41343;SDS011;27089;50.022;7.604;2022-10-17T13:19:16;5.00;;;2.30;;
41343;SDS011;27089;50.022;7.604;2022-10-17T13:21:50;5.50;;;2.28;;
41343;SDS011;27089;50.022;7.604;2022-10-17T13:24:20;4.68;;;1.90;;
41343;SDS011;27089;50.022;7.604;2022-10-17T13:26:50;6.82;;;2.38;;
41343;SDS011;27089;50.022;7.604;2022-10-17T13:29:17;6.70;;;1.88;;
41343;SDS011;27089;50.022;7.604;2022-10-17T13:31:50;3.63;;;1.70;;
41343;SDS011;27089;50.022;7.604;2022-10-17T13:34:19;3.35;;;1.73;;
41343;SDS011;27089;50.022;7.604;2022-10-17T13:36:48;5.57;;;1.83;;
41343;SDS011;27089;50.022;7.604;2022-10-17T13:39:20;3.50;;;1.80;;
41343;SDS011;27089;50.022;7.604;2022-10-17T13:41:50;4.03;;;2.05;;
41343;SDS011;27089;50.022;7.604;2022-10-17T13:44:20;5.40;;;1.88;;
41343;SDS011;27089;50.022;7.604;2022-10-17T13:46:49;6.85;;;1.98;;
41343;SDS011;27089;50.022;7.604;2022-10-17T13:49:19;7.97;;;2.00;;
41343;SDS011;27089;50.022;7.604;2022-10-17T13:51:49;5.63;;;2.03;;
41343;SDS011;27089;50.022;7.604;2022-10-17T13:54:24;3.55;;;2.15;;
41343;SDS011;27089;50.022;7.604;2022-10-17T13:57:01;6.20;;;2.22;;
41343;SDS011;27089;50.022;7.604;2022-10-17T13:59:31;8.23;;;2.30;;
41343;SDS011;27089;50.022;7.604;2022-10-17T14:02:02;3.75;;;1.70;;
41343;SDS011;27089;50.022;7.604;2022-10-17T14:04:30;8.68;;;1.95;;
41343;SDS011;27089;50.022;7.604;2022-10-17T14:06:57;5.95;;;2.28;;
41343;SDS011;27089;50.022;7.604;2022-10-17T14:09:24;5.85;;;1.90;;
41343;SDS011;27089;50.022;7.604;2022-10-17T14:11:58;6.35;;;1.88;;
41343;SDS011;27089;50.022;7.604;2022-10-17T14:14:28;2.78;;;1.90;;
41343;SDS011;27089;50.022;7.604;2022-10-17T14:16:56;6.65;;;2.05;;
41343;SDS011;27089;50.022;7.604;2022-10-17T14:19:24;8.23;;;2.30;;
41343;SDS011;27089;50.022;7.604;2022-10-17T14:21:53;4.70;;;1.50;;
41343;SDS011;27089;50.022;7.604;2022-10-17T14:24:28;5.13;;;2.10;;
41343;SDS011;27089;50.022;7.604;2022-10-17T14:26:57;6.15;;;2.55;;
41343;SDS011;27089;50.022;7.604;2022-10-17T14:29:27;7.80;;;2.55;;
41343;SDS011;27089;50.022;7.604;2022-10-17T14:31:56;4.93;;;2.00;;
41343;SDS011;27089;50.022;7.604;2022-10-17T14:34:29;4.07;;;2.17;;
41343;SDS011;27089;50.022;7.604;2022-10-17T14:36:58;6.75;;;2.15;;
41343;SDS011;27089;50.022;7.604;2022-10-17T14:39:26;7.63;;;2.63;;
41343;SDS011;27089;50.022;7.604;2022-10-17T14:41:54;7.95;;;2.47;;
41343;SDS011;27089;50.022;7.604;2022-10-17T14:44:23;5.82;;;2.22;;
41343;SDS011;27089;50.022;7.604;2022-10-17T14:46:54;5.60;;;2.10;;
41343;SDS011;27089;50.022;7.604;2022-10-17T14:49:31;6.63;;;1.95;;
41343;SDS011;27089;50.022;7.604;2022-10-17T14:54:52;7.38;;;2.33;;
41343;SDS011;27089;50.022;7.604;2022-10-17T14:57:21;5.90;;;2.55;;
41343;SDS011;27089;50.022;7.604;2022-10-17T14:59:51;7.60;;;2.05;;
41343;SDS011;27089;50.022;7.604;2022-10-17T15:02:19;6.70;;;2.20;;
41343;SDS011;27089;50.022;7.604;2022-10-17T15:04:46;4.20;;;1.90;;
41343;SDS011;27089;50.022;7.604;2022-10-17T15:07:13;5.60;;;2.40;;
41343;SDS011;27089;50.022;7.604;2022-10-17T15:09:41;8.23;;;2.78;;
41343;SDS011;27089;50.022;7.604;2022-10-17T15:12:12;6.55;;;2.60;;
41343;SDS011;27089;50.022;7.604;2022-10-17T15:14:41;9.65;;;2.58;;
41343;SDS011;27089;50.022;7.604;2022-10-17T15:17:12;7.38;;;2.17;;
41343;SDS011;27089;50.022;7.604;2022-10-17T15:19:41;4.45;;;2.08;;
41343;SDS011;27089;50.022;7.604;2022-10-17T15:22:08;6.75;;;3.00;;
41343;SDS011;27089;50.022;7.604;2022-10-17T15:24:35;8.15;;;2.65;;
41343;SDS011;27089;50.022;7.604;2022-10-17T15:27:03;7.07;;;2.50;;
41343;SDS011;27089;50.022;7.604;2022-10-17T15:29:38;6.30;;;2.30;;
41343;SDS011;27089;50.022;7.604;2022-10-17T15:32:05;5.93;;;2.53;;
41343;SDS011;27089;50.022;7.604;2022-10-17T15:34:32;5.82;;;2.53;;
41343;SDS011;27089;50.022;7.604;2022-10-17T15:37:00;5.10;;;2.50;;
41343;SDS011;27089;50.022;7.604;2022-10-17T15:39:29;8.68;;;2.65;;
41343;SDS011;27089;50.022;7.604;2022-10-17T15:41:56;6.40;;;2.80;;
41343;SDS011;27089;50.022;7.604;2022-10-17T15:44:23;5.57;;;2.42;;
41343;SDS011;27089;50.022;7.604;2022-10-17T15:46:50;5.82;;;2.85;;